Time;durP1;ratioP1;P1;durP2;ratioP2;P2;SDS_P1;SDS_P2;PMS_P1;PMS_P2;Temp;Humidity;BMP_temperature;BMP_pressure;BME280_temperature;BME280_humidity;BME280_pressure;Samples;Min_cycle;Max_cycle;Signal;HPM_P1;HPM_P2
2021/05/25 00:00:09;;;;;;;13.17;2.73;;;;;;;;;;5028047;28;21816;-69
2021/05/25 00:02:35;;;;;;;3.10;1.60;;;;;;;;;;5005533;28;20655;-69
2021/05/25 00:05:01;;;;;;;3.00;1.47;;;;;;;;;;5023021;28;20601;-69
2021/05/25 00:07:27;;;;;;;1.80;1.67;;;;;;;;;;5005388;28;20271;-69
2021/05/25 00:09:53;;;;;;;1.90;1.67;;;;;;;;;;5027303;28;20315;-69
2021/05/25 00:12:19;;;;;;;2.17;1.50;;;;;;;;;;5024325;28;20216;-69
2021/05/25 00:14:45;;;;;;;1.70;1.60;;;;;;;;;;5026131;28;20223;-71
2021/05/25 00:17:11;;;;;;;1.70;1.50;;;;;;;;;;5027699;28;20207;-71
2021/05/25 00:19:37;;;;;;;2.63;1.80;;;;;;;;;;5023330;28;20184;-68
2021/05/25 00:22:03;;;;;;;3.13;1.60;;;;;;;;;;5019991;28;20215;-70
2021/05/25 00:24:29;;;;;;;1.87;1.40;;;;;;;;;;5022943;28;20250;-71
2021/05/25 00:26:55;;;;;;;3.50;1.77;;;;;;;;;;5026177;28;20184;-69
2021/05/25 00:29:21;;;;;;;3.37;1.73;;;;;;;;;;5024724;28;20716;-71
2021/05/25 00:31:47;;;;;;;2.60;1.50;;;;;;;;;;5022135;28;20208;-70
2021/05/25 00:34:13;;;;;;;3.77;1.80;;;;;;;;;;5027130;28;20192;-69
2021/05/25 00:36:39;;;;;;;3.00;1.70;;;;;;;;;;5009166;28;20208;-71
2021/05/25 00:39:06;;;;;;;2.93;1.50;;;;;;;;;;5023588;28;20188;-71
2021/05/25 00:41:32;;;;;;;3.20;1.60;;;;;;;;;;5027198;28;20196;-68
2021/05/25 00:43:58;;;;;;;2.20;1.60;;;;;;;;;;5021034;28;20263;-71
2021/05/25 00:46:24;;;;;;;2.43;2.17;;;;;;;;;;5026701;28;20204;-71
2021/05/25 00:48:50;;;;;;;3.90;2.23;;;;;;;;;;5026626;28;20184;-71
2021/05/25 00:51:17;;;;;;;2.27;1.40;;;;;;;;;;5022302;28;20220;-71
2021/05/25 00:53:43;;;;;;;2.90;1.40;;;;;;;;;;5024451;28;20250;-70
2021/05/25 00:56:09;;;;;;;2.67;1.80;;;;;;;;;;5027150;28;20199;-69
2021/05/25 00:58:35;;;;;;;2.10;1.50;;;;;;;;;;5023856;28;20620;-70
2021/05/25 01:01:01;;;;;;;1.97;1.57;;;;;;;;;;5018492;28;20223;-69
2021/05/25 01:03:27;;;;;;;2.60;1.87;;;;;;;;;;5021968;28;20204;-71
2021/05/25 01:05:54;;;;;;;3.83;1.57;;;;;;;;;;5032080;28;20207;-70
2021/05/25 01:08:21;;;;;;;2.20;1.50;;;;;;;;;;5050025;28;20188;-70
2021/05/25 01:10:54;;;;;;;3.57;1.83;;;;;;;;;;5047943;28;20209;-70
2021/05/25 01:13:22;;;;;;;3.07;1.77;;;;;;;;;;5039708;28;20274;-70
2021/05/25 01:15:49;;;;;;;3.30;1.80;;;;;;;;;;5008112;28;20219;-70
2021/05/25 01:18:15;;;;;;;2.40;1.67;;;;;;;;;;5022100;28;20211;-71
2021/05/25 01:20:42;;;;;;;3.57;1.73;;;;;;;;;;5024391;28;20211;-69
2021/05/25 01:23:09;;;;;;;1.87;1.70;;;;;;;;;;5018714;28;20590;-71
2021/05/25 01:25:36;;;;;;;1.80;1.70;;;;;;;;;;5022046;28;20197;-69
2021/05/25 01:28:04;;;;;;;3.30;1.73;;;;;;;;;;5008372;28;20271;-70
2021/05/25 01:30:32;;;;;;;2.07;1.50;;;;;;;;;;5026872;28;20238;-69
2021/05/25 01:32:58;;;;;;;3.23;1.60;;;;;;;;;;5021109;28;20184;-69
2021/05/25 01:35:25;;;;;;;2.93;1.93;;;;;;;;;;5022385;28;20185;-69
2021/05/25 01:37:52;;;;;;;3.67;1.90;;;;;;;;;;5023613;28;20269;-70
2021/05/25 01:40:18;;;;;;;1.80;1.70;;;;;;;;;;5023539;28;20211;-69
2021/05/25 01:42:44;;;;;;;2.63;1.80;;;;;;;;;;5022391;28;20187;-72
2021/05/25 01:45:13;;;;;;;1.83;1.67;;;;;;;;;;5023453;28;20188;-70
2021/05/25 01:47:39;;;;;;;3.80;1.70;;;;;;;;;;5026075;28;20223;-69
2021/05/25 01:50:12;;;;;;;2.30;1.67;;;;;;;;;;5023625;28;20706;-68
2021/05/25 01:53:00;;;;;;;4.07;1.90;;;;;;;;;;5024248;28;20226;-71
2021/05/25 01:55:26;;;;;;;3.20;1.37;;;;;;;;;;5027056;28;20598;-72
2021/05/25 01:57:53;;;;;;;2.13;1.40;;;;;;;;;;5023375;28;20258;-70
2021/05/25 02:00:19;;;;;;;2.43;1.47;;;;;;;;;;5023096;28;20732;-70
2021/05/25 02:02:45;;;;;;;3.20;1.90;;;;;;;;;;5025643;28;20181;-70
2021/05/25 02:05:11;;;;;;;2.80;1.70;;;;;;;;;;5031806;28;20199;-71
2021/05/25 02:07:37;;;;;;;2.10;1.43;;;;;;;;;;5025081;28;20700;-70
2021/05/25 02:10:03;;;;;;;2.37;1.60;;;;;;;;;;5026326;28;20380;-71
2021/05/25 02:12:29;;;;;;;2.53;1.70;;;;;;;;;;5010805;28;20306;-70
2021/05/25 02:14:55;;;;;;;2.93;2.10;;;;;;;;;;5012325;28;20275;-70
2021/05/25 02:17:25;;;;;;;4.23;1.87;;;;;;;;;;5026896;28;20761;-69
2021/05/25 02:19:51;;;;;;;5.03;2.00;;;;;;;;;;5030862;28;20191;-69
2021/05/25 02:22:17;;;;;;;2.57;1.53;;;;;;;;;;5006447;28;20266;-70
2021/05/25 02:24:43;;;;;;;3.77;1.90;;;;;;;;;;5026442;28;20192;-69
2021/05/25 02:27:09;;;;;;;5.13;1.70;;;;;;;;;;5028377;28;20294;-70
2021/05/25 02:29:35;;;;;;;5.57;2.27;;;;;;;;;;5022730;28;20198;-69
2021/05/25 02:32:01;;;;;;;1.70;1.60;;;;;;;;;;5024974;28;20578;-70
2021/05/25 02:34:27;;;;;;;3.87;1.47;;;;;;;;;;5011333;28;20274;-69
2021/05/25 02:36:53;;;;;;;3.07;1.77;;;;;;;;;;5026876;28;20694;-70
2021/05/25 02:39:19;;;;;;;2.70;2.00;;;;;;;;;;5004120;28;20217;-69
2021/05/25 02:41:45;;;;;;;3.43;1.60;;;;;;;;;;5022465;28;20203;-69
2021/05/25 02:44:11;;;;;;;3.97;1.80;;;;;;;;;;5027403;28;20185;-70
2021/05/25 02:46:37;;;;;;;2.63;1.70;;;;;;;;;;5026968;28;20192;-69
2021/05/25 02:49:03;;;;;;;3.80;2.23;;;;;;;;;;5027891;28;20189;-72
2021/05/25 02:51:29;;;;;;;4.83;2.33;;;;;;;;;;5027828;28;20693;-70
2021/05/25 02:53:55;;;;;;;2.83;1.93;;;;;;;;;;5026750;28;20184;-70
2021/05/25 02:56:21;;;;;;;8.10;1.97;;;;;;;;;;5024522;28;20192;-71
2021/05/25 02:58:47;;;;;;;3.37;1.90;;;;;;;;;;5026046;28;20267;-70
2021/05/25 03:01:13;;;;;;;6.50;2.03;;;;;;;;;;5026621;28;20206;-72
2021/05/25 03:03:39;;;;;;;2.30;1.63;;;;;;;;;;5024491;28;20668;-69
2021/05/25 03:06:05;;;;;;;2.13;1.70;;;;;;;;;;5012232;28;20638;-68
2021/05/25 03:08:31;;;;;;;4.57;1.80;;;;;;;;;;5011753;28;20620;-69
2021/05/25 03:10:57;;;;;;;2.87;1.40;;;;;;;;;;5025803;28;20211;-69
2021/05/25 03:13:23;;;;;;;3.30;1.87;;;;;;;;;;5010266;28;20224;-71
2021/05/25 03:15:51;;;;;;;5.33;1.80;;;;;;;;;;5008558;28;20654;-71
2021/05/25 03:18:17;;;;;;;3.70;1.90;;;;;;;;;;5022643;28;20238;-70
2021/05/25 03:20:45;;;;;;;3.50;1.57;;;;;;;;;;5022266;28;20251;-69
2021/05/25 03:23:11;;;;;;;8.03;2.03;;;;;;;;;;5026723;28;20196;-72
2021/05/25 03:25:37;;;;;;;2.60;1.50;;;;;;;;;;5028558;28;20216;-71
2021/05/25 03:28:04;;;;;;;5.30;1.90;;;;;;;;;;5024561;28;20198;-70
2021/05/25 03:30:30;;;;;;;2.47;1.80;;;;;;;;;;5026225;28;20256;-71
2021/05/25 03:32:57;;;;;;;3.67;1.70;;;;;;;;;;5028324;28;20621;-71
2021/05/25 03:35:24;;;;;;;3.17;1.67;;;;;;;;;;5024093;28;20602;-70
2021/05/25 03:37:50;;;;;;;2.60;1.60;;;;;;;;;;5025227;28;20725;-71
2021/05/25 03:40:16;;;;;;;3.10;1.60;;;;;;;;;;5027707;28;20192;-70
2021/05/25 03:42:46;;;;;;;3.43;1.73;;;;;;;;;;5019771;28;20188;-70
2021/05/25 03:45:13;;;;;;;2.60;2.03;;;;;;;;;;5023464;28;20268;-71
2021/05/25 03:47:39;;;;;;;2.00;1.60;;;;;;;;;;5019211;28;20233;-72
2021/05/25 03:50:08;;;;;;;3.10;2.17;;;;;;;;;;5017893;28;20205;-70
2021/05/25 03:52:35;;;;;;;4.23;1.60;;;;;;;;;;5024490;28;20934;-71
2021/05/25 03:55:03;;;;;;;3.67;2.00;;;;;;;;;;5025736;28;20195;-72
2021/05/25 03:59:56;;;;;;;5.77;1.80;;;;;;;;;;5021761;28;20689;-71
2021/05/25 04:02:22;;;;;;;2.37;1.40;;;;;;;;;;5023832;28;20292;-71
2021/05/25 04:04:48;;;;;;;2.93;1.50;;;;;;;;;;5026797;28;20333;-71
2021/05/25 04:07:14;;;;;;;4.67;1.63;;;;;;;;;;5021287;28;20188;-71
2021/05/25 04:09:40;;;;;;;3.63;1.30;;;;;;;;;;5025080;28;20215;-71
2021/05/25 04:12:06;;;;;;;2.50;1.40;;;;;;;;;;5026427;28;20216;-71
2021/05/25 04:14:33;;;;;;;1.40;1.30;;;;;;;;;;5025280;28;20201;-72
2021/05/25 04:16:59;;;;;;;2.60;2.23;;;;;;;;;;5023536;28;20223;-72
2021/05/25 04:19:25;;;;;;;1.50;1.40;;;;;;;;;;5007700;28;20212;-69
2021/05/25 04:21:51;;;;;;;2.17;1.40;;;;;;;;;;5023084;28;20250;-73
2021/05/25 04:24:17;;;;;;;2.27;1.60;;;;;;;;;;5021806;28;20202;-71
2021/05/25 04:26:43;;;;;;;2.73;1.53;;;;;;;;;;5025217;28;20724;-72
2021/05/25 04:29:09;;;;;;;1.50;1.30;;;;;;;;;;5023248;28;20267;-71
2021/05/25 04:31:36;;;;;;;2.30;1.50;;;;;;;;;;5024332;28;20220;-72
2021/05/25 04:34:02;;;;;;;1.80;1.33;;;;;;;;;;5022573;28;20192;-71
2021/05/25 04:36:28;;;;;;;2.43;1.90;;;;;;;;;;5027108;28;20188;-71
2021/05/25 04:38:54;;;;;;;5.13;1.70;;;;;;;;;;5024416;28;20926;-72
2021/05/25 04:41:20;;;;;;;3.63;1.50;;;;;;;;;;5025187;28;20228;-71
2021/05/25 04:43:46;;;;;;;1.47;1.30;;;;;;;;;;5024942;28;20225;-71
2021/05/25 04:46:12;;;;;;;1.53;1.43;;;;;;;;;;5024015;28;20186;-71
2021/05/25 04:48:38;;;;;;;2.47;1.77;;;;;;;;;;5022369;28;20205;-72
2021/05/25 04:51:05;;;;;;;4.53;1.67;;;;;;;;;;5025333;28;20235;-71
2021/05/25 04:53:32;;;;;;;3.20;1.70;;;;;;;;;;5023489;28;20199;-71
2021/05/25 04:55:58;;;;;;;2.20;1.03;;;;;;;;;;5022830;28;20234;-72
2021/05/25 04:58:24;;;;;;;2.93;1.60;;;;;;;;;;5024612;28;20269;-72
2021/05/25 05:00:50;;;;;;;1.73;1.40;;;;;;;;;;5025668;28;20736;-72
2021/05/25 05:03:16;;;;;;;2.00;1.50;;;;;;;;;;5023928;28;20199;-72
2021/05/25 05:05:42;;;;;;;2.37;1.70;;;;;;;;;;5023984;28;20209;-72
2021/05/25 05:08:08;;;;;;;1.97;1.43;;;;;;;;;;5026616;28;20188;-73
2021/05/25 05:10:34;;;;;;;2.03;1.50;;;;;;;;;;5014916;28;20261;-72
2021/05/25 05:13:02;;;;;;;2.80;1.30;;;;;;;;;;5026080;28;20274;-73
2021/05/25 05:15:30;;;;;;;2.00;1.50;;;;;;;;;;5026457;28;20189;-71
2021/05/25 05:17:56;;;;;;;1.67;1.30;;;;;;;;;;5021497;28;20207;-70
2021/05/25 05:20:22;;;;;;;2.60;1.20;;;;;;;;;;5020797;28;20191;-70
2021/05/25 05:22:48;;;;;;;2.63;1.53;;;;;;;;;;5023119;28;20185;-72
2021/05/25 05:25:14;;;;;;;1.90;1.80;;;;;;;;;;5023964;28;20272;-72
2021/05/25 05:27:40;;;;;;;3.00;1.90;;;;;;;;;;5026344;28;20272;-72
2021/05/25 05:30:07;;;;;;;2.10;1.40;;;;;;;;;;5009198;28;20239;-72
2021/05/25 05:32:33;;;;;;;1.50;1.20;;;;;;;;;;5024252;28;20208;-70
2021/05/25 05:34:59;;;;;;;1.77;1.50;;;;;;;;;;5022556;28;20765;-73
2021/05/25 05:37:25;;;;;;;2.00;1.37;;;;;;;;;;5021120;28;20216;-71
2021/05/25 05:39:51;;;;;;;3.27;1.67;;;;;;;;;;5027007;28;20181;-71
2021/05/25 05:42:18;;;;;;;4.70;1.73;;;;;;;;;;5029215;28;20287;-71
2021/05/25 05:44:44;;;;;;;2.57;1.60;;;;;;;;;;5025579;28;20267;-71
2021/05/25 05:47:10;;;;;;;2.03;1.60;;;;;;;;;;5013955;28;20199;-72
2021/05/25 05:49:38;;;;;;;1.73;1.40;;;;;;;;;;5029930;28;20185;-71
2021/05/25 05:52:04;;;;;;;2.07;1.33;;;;;;;;;;5012425;28;20243;-72
2021/05/25 05:54:30;;;;;;;2.07;1.60;;;;;;;;;;5026405;28;20212;-72
2021/05/25 05:56:56;;;;;;;3.23;1.47;;;;;;;;;;5029837;28;20296;-72
2021/05/25 05:59:23;;;;;;;2.57;1.43;;;;;;;;;;5027827;28;20655;-71
2021/05/25 06:01:49;;;;;;;1.77;1.50;;;;;;;;;;5023148;28;20294;-71
2021/05/25 06:04:15;;;;;;;4.10;1.40;;;;;;;;;;5024145;28;20284;-72
2021/05/25 06:06:41;;;;;;;2.60;1.37;;;;;;;;;;5027989;28;20215;-72
2021/05/25 06:09:07;;;;;;;3.33;1.83;;;;;;;;;;5028938;28;20640;-72
2021/05/25 06:11:33;;;;;;;1.97;1.30;;;;;;;;;;5025164;28;20223;-72
2021/05/25 06:13:59;;;;;;;1.50;1.20;;;;;;;;;;5012178;28;20193;-72
2021/05/25 06:16:25;;;;;;;1.73;1.17;;;;;;;;;;5026944;28;20216;-72
2021/05/25 06:18:51;;;;;;;1.93;1.20;;;;;;;;;;5028448;28;20235;-71
2021/05/25 06:21:17;;;;;;;2.47;1.20;;;;;;;;;;5025846;28;20204;-71
2021/05/25 06:23:43;;;;;;;2.40;1.23;;;;;;;;;;5012263;28;20284;-71
2021/05/25 06:26:09;;;;;;;3.23;1.40;;;;;;;;;;5023238;28;20233;-73
2021/05/25 06:28:35;;;;;;;1.40;1.30;;;;;;;;;;5027357;28;20673;-71
2021/05/25 06:31:01;;;;;;;1.30;1.20;;;;;;;;;;5009834;28;20266;-71
2021/05/25 06:33:28;;;;;;;2.10;1.63;;;;;;;;;;5026567;28;20203;-72
2021/05/25 06:35:54;;;;;;;3.67;1.40;;;;;;;;;;5028081;28;20192;-71
2021/05/25 06:38:20;;;;;;;1.53;1.43;;;;;;;;;;5027558;28;20286;-71
2021/05/25 06:40:46;;;;;;;2.70;1.60;;;;;;;;;;5010895;28;20244;-71
2021/05/25 06:43:13;;;;;;;3.60;1.40;;;;;;;;;;5027427;28;20184;-70
2021/05/25 06:45:39;;;;;;;2.07;1.40;;;;;;;;;;5012915;28;20203;-69
2021/05/25 06:48:06;;;;;;;2.80;1.13;;;;;;;;;;5021752;28;20192;-70
2021/05/25 06:50:32;;;;;;;4.22;1.35;;;;;;;;;;5025885;28;20219;-69
2021/05/25 06:52:58;;;;;;;1.42;1.20;;;;;;;;;;5025658;28;20185;-69
2021/05/25 06:55:24;;;;;;;1.75;1.10;;;;;;;;;;5023325;28;20195;-71
2021/05/25 06:57:50;;;;;;;2.33;1.10;;;;;;;;;;5009710;28;20208;-71
2021/05/25 07:00:18;;;;;;;3.60;1.58;;;;;;;;;;5025258;28;20254;-70
2021/05/25 07:02:44;;;;;;;3.70;1.33;;;;;;;;;;5025678;28;20180;-70
2021/05/25 07:05:10;;;;;;;2.55;1.50;;;;;;;;;;5024479;28;20227;-70
2021/05/25 07:07:36;;;;;;;2.20;1.55;;;;;;;;;;5027138;28;20189;-70
2021/05/25 07:10:04;;;;;;;1.40;1.30;;;;;;;;;;5031633;28;20602;-70
2021/05/25 07:12:30;;;;;;;2.85;1.25;;;;;;;;;;5022245;28;20710;-70
2021/05/25 07:14:56;;;;;;;1.30;1.20;;;;;;;;;;5027162;28;20192;-70
2021/05/25 07:17:22;;;;;;;2.35;1.60;;;;;;;;;;5011005;28;20802;-68
2021/05/25 07:19:47;;;;;;;3.53;1.20;;;;;;;;;;5023060;28;20180;-70
2021/05/25 07:22:13;;;;;;;1.35;1.20;;;;;;;;;;5023091;28;20644;-69
2021/05/25 07:24:40;;;;;;;2.70;1.27;;;;;;;;;;5023799;28;20246;-69
2021/05/25 07:27:06;;;;;;;2.10;1.20;;;;;;;;;;5023700;28;20203;-70
2021/05/25 07:29:32;;;;;;;4.22;1.08;;;;;;;;;;5024330;28;20184;-69
2021/05/25 07:31:58;;;;;;;1.90;1.20;;;;;;;;;;5022979;28;20236;-69
2021/05/25 07:34:24;;;;;;;1.38;1.02;;;;;;;;;;5021563;28;20184;-70
2021/05/25 07:36:50;;;;;;;2.35;1.13;;;;;;;;;;5023325;28;20243;-70
2021/05/25 07:39:16;;;;;;;3.65;1.00;;;;;;;;;;5024835;28;20184;-70
2021/05/25 07:41:43;;;;;;;2.83;1.40;;;;;;;;;;5022975;28;20218;-69
2021/05/25 07:44:09;;;;;;;2.45;1.50;;;;;;;;;;5023349;28;20679;-70
2021/05/25 07:46:35;;;;;;;1.30;1.00;;;;;;;;;;5015850;28;20252;-70
2021/05/25 07:49:02;;;;;;;5.55;1.40;;;;;;;;;;5023138;28;20260;-70
2021/05/25 07:51:28;;;;;;;1.70;1.35;;;;;;;;;;5025424;28;20204;-71
2021/05/25 07:53:54;;;;;;;1.65;1.00;;;;;;;;;;5023708;28;20533;-70
2021/05/25 07:56:20;;;;;;;2.40;1.15;;;;;;;;;;5030738;28;20652;-69
2021/05/25 07:58:46;;;;;;;2.60;1.20;;;;;;;;;;5025543;28;20180;-70
2021/05/25 08:01:12;;;;;;;3.38;1.20;;;;;;;;;;5020748;28;20212;-70
2021/05/25 08:03:38;;;;;;;2.53;0.90;;;;;;;;;;5023868;28;20268;-70
2021/05/25 08:06:04;;;;;;;2.97;1.00;;;;;;;;;;5006708;28;20590;-71
2021/05/25 08:08:30;;;;;;;2.95;1.27;;;;;;;;;;5017655;28;20591;-70
2021/05/25 08:10:57;;;;;;;3.60;1.10;;;;;;;;;;5022050;28;20694;-70
2021/05/25 08:13:23;;;;;;;1.77;1.10;;;;;;;;;;5022863;28;20315;-70
2021/05/25 08:15:50;;;;;;;1.17;1.00;;;;;;;;;;5021794;28;20264;-70
2021/05/25 08:20:44;;;;;;;2.33;1.20;;;;;;;;;;5022736;28;20204;-69
2021/05/25 08:23:11;;;;;;;1.48;1.38;;;;;;;;;;5020279;28;20275;-69
2021/05/25 08:25:38;;;;;;;2.75;1.67;;;;;;;;;;5023770;28;20193;-69
2021/05/25 08:28:05;;;;;;;4.30;1.25;;;;;;;;;;5024955;28;20196;-69
2021/05/25 08:30:32;;;;;;;7.03;1.27;;;;;;;;;;5024190;28;20273;-69
2021/05/25 08:32:59;;;;;;;1.67;1.15;;;;;;;;;;5019693;28;20202;-69
2021/05/25 08:35:28;;;;;;;2.50;1.10;;;;;;;;;;5024387;28;20180;-69
2021/05/25 08:37:59;;;;;;;1.63;1.05;;;;;;;;;;5024652;28;20670;-69
2021/05/25 08:40:25;;;;;;;1.63;1.00;;;;;;;;;;5021464;28;20195;-70
2021/05/25 08:42:52;;;;;;;1.90;1.15;;;;;;;;;;5025621;28;20275;-71
2021/05/25 08:45:20;;;;;;;1.73;1.20;;;;;;;;;;5026408;28;20249;-69
2021/05/25 08:47:46;;;;;;;4.55;1.38;;;;;;;;;;5027989;28;20192;-69
2021/05/25 08:50:13;;;;;;;2.40;1.48;;;;;;;;;;5022538;28;20195;-69
2021/05/25 08:52:40;;;;;;;2.30;1.20;;;;;;;;;;5025790;28;20244;-69
2021/05/25 08:55:07;;;;;;;1.60;1.13;;;;;;;;;;5029289;28;20188;-73
2021/05/25 08:57:33;;;;;;;1.15;1.05;;;;;;;;;;5024372;28;20200;-69
2021/05/25 09:00:00;;;;;;;2.78;1.30;;;;;;;;;;5009502;28;20220;-69
2021/05/25 09:02:26;;;;;;;3.17;1.30;;;;;;;;;;5028680;28;20203;-70
2021/05/25 09:05:11;;;;;;;1.10;0.98;;;;;;;;;;5024036;28;20271;-70
2021/05/25 09:07:47;;;;;;;2.00;1.27;;;;;;;;;;5023917;28;20196;-70
2021/05/25 09:10:16;;;;;;;3.28;1.15;;;;;;;;;;5024537;28;20183;-69
2021/05/25 09:12:47;;;;;;;1.45;1.10;;;;;;;;;;5029739;28;20260;-69
2021/05/25 09:15:16;;;;;;;2.22;1.20;;;;;;;;;;5024561;28;20188;-69
2021/05/25 09:17:42;;;;;;;3.40;1.30;;;;;;;;;;5031725;28;20575;-69
2021/05/25 09:20:09;;;;;;;2.17;1.30;;;;;;;;;;5009955;28;20185;-71
2021/05/25 09:22:42;;;;;;;1.35;1.10;;;;;;;;;;5027605;28;20246;-71
2021/05/25 09:25:18;;;;;;;2.28;1.00;;;;;;;;;;5029739;28;20212;-70
2021/05/25 09:27:48;;;;;;;4.10;1.45;;;;;;;;;;5012350;28;20687;-71
2021/05/25 09:30:14;;;;;;;2.20;1.10;;;;;;;;;;5030071;28;20196;-68
2021/05/25 09:32:45;;;;;;;2.05;1.35;;;;;;;;;;5028074;28;20211;-68
2021/05/25 09:35:11;;;;;;;2.17;1.23;;;;;;;;;;5029340;28;20437;-69
2021/05/25 09:37:44;;;;;;;1.17;1.10;;;;;;;;;;5012269;28;20300;-68
2021/05/25 09:40:10;;;;;;;2.00;1.20;;;;;;;;;;5028524;28;20189;-68
2021/05/25 09:42:36;;;;;;;3.72;2.20;;;;;;;;;;5025903;28;21218;-68
2021/05/25 09:45:06;;;;;;;2.22;1.40;;;;;;;;;;5029816;28;20223;-68
2021/05/25 09:47:34;;;;;;;3.85;1.40;;;;;;;;;;5031198;28;20196;-69
2021/05/25 09:50:01;;;;;;;2.67;1.40;;;;;;;;;;5028313;28;20219;-70
2021/05/25 09:52:27;;;;;;;2.28;1.10;;;;;;;;;;5031358;28;20204;-69
2021/05/25 09:55:04;;;;;;;5.70;1.50;;;;;;;;;;5014727;28;20239;-68
2021/05/25 09:57:40;;;;;;;2.75;1.20;;;;;;;;;;5028141;28;20219;-69
2021/05/25 10:00:22;;;;;;;1.17;0.88;;;;;;;;;;5027493;28;20791;-70
2021/05/25 10:03:03;;;;;;;2.83;1.30;;;;;;;;;;5027004;28;20259;-69
2021/05/25 10:05:29;;;;;;;2.75;0.98;;;;;;;;;;5027715;28;20190;-69
2021/05/25 10:07:55;;;;;;;1.52;1.15;;;;;;;;;;5028884;28;20215;-69
2021/05/25 10:10:22;;;;;;;6.50;1.65;;;;;;;;;;5023857;28;20184;-69
2021/05/25 10:12:48;;;;;;;2.40;1.13;;;;;;;;;;5027148;28;20648;-68
2021/05/25 10:15:15;;;;;;;3.97;1.42;;;;;;;;;;5032247;28;20197;-71
2021/05/25 10:17:55;;;;;;;1.63;1.33;;;;;;;;;;5027537;28;20647;-69
2021/05/25 10:20:21;;;;;;;3.97;1.95;;;;;;;;;;5024553;28;20184;-70
2021/05/25 10:22:47;;;;;;;3.65;1.60;;;;;;;;;;5028526;28;20176;-69
2021/05/25 10:25:16;;;;;;;2.05;1.40;;;;;;;;;;5023383;28;20199;-70
2021/05/25 10:27:42;;;;;;;3.55;1.38;;;;;;;;;;5012040;28;20731;-69
2021/05/25 10:30:24;;;;;;;1.48;1.00;;;;;;;;;;5028376;28;20307;-69
2021/05/25 10:33:10;;;;;;;1.67;1.25;;;;;;;;;;5029713;28;20226;-68
2021/05/25 10:35:54;;;;;;;1.33;1.20;;;;;;;;;;5012237;28;20647;-69
2021/05/25 10:38:25;;;;;;;2.25;1.25;;;;;;;;;;5027915;28;20211;-69
2021/05/25 10:40:52;;;;;;;4.00;1.40;;;;;;;;;;5025922;28;20205;-69
2021/05/25 10:43:31;;;;;;;2.63;1.30;;;;;;;;;;5031150;28;20643;-68
2021/05/25 10:46:12;;;;;;;1.63;1.30;;;;;;;;;;5020190;28;20647;-68
2021/05/25 10:49:07;;;;;;;2.05;1.05;;;;;;;;;;5019633;28;20246;-68
2021/05/25 10:51:46;;;;;;;2.47;1.10;;;;;;;;;;5020075;28;20215;-67
2021/05/25 10:54:32;;;;;;;2.58;1.23;;;;;;;;;;5020983;28;20184;-69
2021/05/25 10:57:00;;;;;;;1.77;1.10;;;;;;;;;;5007320;28;20721;-69
2021/05/25 10:59:26;;;;;;;4.00;1.35;;;;;;;;;;5020345;28;20185;-69
2021/05/25 11:01:56;;;;;;;3.85;1.35;;;;;;;;;;5023791;28;20204;-70
2021/05/25 11:04:37;;;;;;;3.38;1.20;;;;;;;;;;5022316;28;20189;-70
2021/05/25 11:07:22;;;;;;;3.00;1.00;;;;;;;;;;5022908;28;20192;-69
2021/05/25 11:09:48;;;;;;;1.60;0.82;;;;;;;;;;5019732;28;20655;-70
2021/05/25 11:12:15;;;;;;;4.63;1.40;;;;;;;;;;5024209;28;20291;-67
2021/05/25 11:15:00;;;;;;;2.97;1.30;;;;;;;;;;5027609;28;20267;-70
2021/05/25 11:17:29;;;;;;;4.53;1.40;;;;;;;;;;5021038;28;20200;-69
2021/05/25 11:20:08;;;;;;;3.45;1.33;;;;;;;;;;5018374;28;20184;-69
2021/05/25 11:22:35;;;;;;;2.67;1.40;;;;;;;;;;5025784;28;20202;-70
2021/05/25 11:25:06;;;;;;;3.50;1.10;;;;;;;;;;5028073;28;20242;-70
2021/05/25 11:27:34;;;;;;;1.42;1.00;;;;;;;;;;5023773;28;20275;-70
2021/05/25 11:30:04;;;;;;;4.10;1.52;;;;;;;;;;5013114;28;20192;-71
2021/05/25 11:32:31;;;;;;;2.85;1.33;;;;;;;;;;5028057;28;20200;-70
2021/05/25 11:34:57;;;;;;;5.50;1.48;;;;;;;;;;5020400;28;20271;-68
2021/05/25 11:37:24;;;;;;;3.05;1.17;;;;;;;;;;5022658;28;20293;-68
2021/05/25 11:39:52;;;;;;;2.55;1.50;;;;;;;;;;5022156;28;20302;-65
2021/05/25 11:42:23;;;;;;;4.43;1.50;;;;;;;;;;5027416;28;20217;-71
2021/05/25 11:44:51;;;;;;;4.28;1.27;;;;;;;;;;5024320;28;20260;-65
2021/05/25 11:47:17;;;;;;;3.42;1.50;;;;;;;;;;5027461;28;20196;-65
2021/05/25 11:49:44;;;;;;;4.68;2.10;;;;;;;;;;5024679;28;20277;-65
2021/05/25 11:52:38;;;;;;;3.03;1.70;;;;;;;;;;5008849;28;20231;-66
2021/05/25 11:55:06;;;;;;;4.38;2.38;;;;;;;;;;5023459;28;20188;-69
2021/05/25 11:57:32;;;;;;;4.10;1.67;;;;;;;;;;5023701;28;20285;-67
2021/05/25 12:00:00;;;;;;;7.35;1.75;;;;;;;;;;5025017;28;20746;-68
2021/05/25 12:02:27;;;;;;;3.13;1.50;;;;;;;;;;5009299;28;20204;-67
2021/05/25 12:05:04;;;;;;;2.20;1.27;;;;;;;;;;5026795;28;20193;-69
2021/05/25 12:07:30;;;;;;;2.30;1.30;;;;;;;;;;5024785;28;20280;-69
2021/05/25 12:09:59;;;;;;;1.80;1.23;;;;;;;;;;5021367;28;20184;-68
2021/05/25 12:12:27;;;;;;;2.13;1.70;;;;;;;;;;5007922;28;20295;-69
2021/05/25 12:14:54;;;;;;;3.40;1.40;;;;;;;;;;5025020;28;20582;-67
2021/05/25 12:17:23;;;;;;;2.83;1.20;;;;;;;;;;5021374;28;20236;-69
2021/05/25 12:19:57;;;;;;;2.63;1.08;;;;;;;;;;5022808;28;20554;-67
2021/05/25 12:22:33;;;;;;;3.63;1.50;;;;;;;;;;5027688;28;20242;-68
2021/05/25 12:25:15;;;;;;;2.80;1.40;;;;;;;;;;5025512;28;20223;-68
2021/05/25 12:27:41;;;;;;;2.33;1.20;;;;;;;;;;5020662;28;20191;-68
2021/05/25 12:30:08;;;;;;;1.88;1.25;;;;;;;;;;5023380;28;20188;-69
2021/05/25 12:32:34;;;;;;;2.25;1.23;;;;;;;;;;5025880;28;20196;-69
2021/05/25 12:35:01;;;;;;;3.63;1.42;;;;;;;;;;5010122;28;20216;-69
2021/05/25 12:37:27;;;;;;;1.88;1.08;;;;;;;;;;5020367;28;20204;-67
2021/05/25 12:40:04;;;;;;;2.30;1.55;;;;;;;;;;5025781;28;20188;-69
2021/05/25 12:42:37;;;;;;;3.67;1.30;;;;;;;;;;5023647;28;20279;-68
2021/05/25 12:45:11;;;;;;;5.78;1.35;;;;;;;;;;5006722;28;20553;-68
2021/05/25 12:47:56;;;;;;;1.90;1.30;;;;;;;;;;5005850;28;20246;-67
2021/05/25 12:50:27;;;;;;;1.70;1.25;;;;;;;;;;5025004;28;20567;-68
2021/05/25 12:53:06;;;;;;;3.55;1.33;;;;;;;;;;5022369;28;20207;-68
2021/05/25 12:55:32;;;;;;;2.15;1.10;;;;;;;;;;5016767;28;20279;-67
2021/05/25 12:57:59;;;;;;;2.65;1.20;;;;;;;;;;5019316;28;20210;-67
2021/05/25 13:00:37;;;;;;;3.42;1.20;;;;;;;;;;5026155;28;20184;-68
2021/05/25 13:03:04;;;;;;;1.88;1.00;;;;;;;;;;5023707;28;20230;-68
2021/05/25 13:05:31;;;;;;;1.73;0.98;;;;;;;;;;5025069;28;20217;-67
2021/05/25 13:08:19;;;;;;;0.90;0.70;;;;;;;;;;5023436;28;20197;-67
2021/05/25 13:10:51;;;;;;;2.72;1.05;;;;;;;;;;5026658;28;20601;-68
2021/05/25 13:13:19;;;;;;;11.10;1.25;;;;;;;;;;5024759;28;20275;-73
2021/05/25 13:15:48;;;;;;;2.67;1.13;;;;;;;;;;5024712;28;20198;-77
2021/05/25 13:18:15;;;;;;;1.83;0.75;;;;;;;;;;5024396;28;20299;-74
2021/05/25 13:20:45;;;;;;;5.47;1.15;;;;;;;;;;5021953;28;20714;-75
2021/05/25 13:23:22;;;;;;;1.83;1.00;;;;;;;;;;5008685;28;20215;-75
2021/05/25 13:25:53;;;;;;;3.28;1.20;;;;;;;;;;5024627;28;20180;-74
2021/05/25 13:28:20;;;;;;;2.83;1.40;;;;;;;;;;5025801;28;20172;-74
2021/05/25 13:30:46;;;;;;;4.82;1.30;;;;;;;;;;5008703;28;20232;-73
2021/05/25 13:33:12;;;;;;;2.85;1.30;;;;;;;;;;5007007;28;20197;-72
2021/05/25 13:35:38;;;;;;;2.03;1.20;;;;;;;;;;5022708;28;20195;-74
2021/05/25 13:38:06;;;;;;;1.63;1.13;;;;;;;;;;5022165;28;20650;-72
2021/05/25 13:40:33;;;;;;;2.80;1.27;;;;;;;;;;5021601;28;20172;-72
2021/05/25 13:42:59;;;;;;;2.08;1.20;;;;;;;;;;5026115;28;20191;-70
2021/05/25 13:45:25;;;;;;;1.92;1.05;;;;;;;;;;5025598;28;20256;-70
2021/05/25 13:47:52;;;;;;;3.25;1.35;;;;;;;;;;5019130;28;20678;-70
2021/05/25 13:50:25;;;;;;;3.08;1.50;;;;;;;;;;5024376;28;20181;-70
2021/05/25 13:52:53;;;;;;;8.32;1.70;;;;;;;;;;5025902;28;20780;-71
2021/05/25 13:55:21;;;;;;;2.25;1.00;;;;;;;;;;5022479;28;20270;-71
2021/05/25 13:57:48;;;;;;;7.75;1.40;;;;;;;;;;5025013;28;20261;-73
2021/05/25 14:00:18;;;;;;;3.40;1.08;;;;;;;;;;5027368;28;20275;-74
2021/05/25 14:02:45;;;;;;;4.90;1.10;;;;;;;;;;5027984;28;20530;-71
2021/05/25 14:05:12;;;;;;;17.00;2.47;;;;;;;;;;5025576;28;20177;-71
2021/05/25 14:07:42;;;;;;;8.15;1.35;;;;;;;;;;5023940;28;20192;-71
2021/05/25 14:10:08;;;;;;;4.38;1.27;;;;;;;;;;5029966;28;20775;-74
2021/05/25 14:12:34;;;;;;;5.75;1.50;;;;;;;;;;5015569;28;20204;-70
2021/05/25 14:15:00;;;;;;;3.05;1.23;;;;;;;;;;5027339;28;20185;-70
2021/05/25 14:17:26;;;;;;;3.63;1.33;;;;;;;;;;5025723;28;20262;-70
2021/05/25 14:19:52;;;;;;;18.02;2.90;;;;;;;;;;5023379;28;21446;-70
2021/05/25 14:22:18;;;;;;;8.23;1.70;;;;;;;;;;5009201;28;20204;-70
2021/05/25 14:24:44;;;;;;;5.10;1.23;;;;;;;;;;5021909;28;20200;-71
2021/05/25 14:27:10;;;;;;;7.18;1.65;;;;;;;;;;5027106;28;20185;-71
2021/05/25 14:29:36;;;;;;;7.03;1.20;;;;;;;;;;5011305;28;20184;-73
2021/05/25 14:32:02;;;;;;;36.80;3.08;;;;;;;;;;5026686;28;20232;-73
2021/05/25 14:34:28;;;;;;;5.45;1.42;;;;;;;;;;5007618;28;20540;-73
2021/05/25 14:36:54;;;;;;;3.83;1.10;;;;;;;;;;5025671;28;20191;-70
2021/05/25 14:39:20;;;;;;;6.93;1.33;;;;;;;;;;5013924;28;20324;-70
2021/05/25 14:41:46;;;;;;;2.35;1.27;;;;;;;;;;5030368;28;21024;-70
2021/05/25 14:44:12;;;;;;;5.78;1.10;;;;;;;;;;5021006;28;20675;-68
2021/05/25 14:46:38;;;;;;;16.55;1.98;;;;;;;;;;5025448;28;20204;-69
2021/05/25 14:49:04;;;;;;;4.93;1.60;;;;;;;;;;5026878;28;20216;-70
2021/05/25 14:51:30;;;;;;;6.05;1.27;;;;;;;;;;5025577;28;20246;-72